Time;durP1;ratioP1;P1;durP2;ratioP2;P2;SDS_P1;SDS_P2;PMS_P1;PMS_P2;Temp;Humidity;BMP_temperature;BMP_pressure;BME280_temperature;BME280_humidity;BME280_pressure;Samples;Min_cycle;Max_cycle;Signal;HPM_P1;HPM_P2
2023/01/23 00:00:40;;;;;;;13.25;7.05;;;3.10;99.90;;;;;;5017285;28;20057;-82
2023/01/23 00:03:06;;;;;;;14.32;7.10;;;3.10;99.90;;;;;;5018065;28;20051;-81
2023/01/23 00:05:32;;;;;;;16.67;7.32;;;3.10;99.90;;;;;;5019618;28;20592;-82
2023/01/23 00:07:57;;;;;;;20.38;8.65;;;3.10;99.90;;;;;;5019113;28;20041;-82
2023/01/23 00:10:23;;;;;;;15.63;7.55;;;3.10;99.90;;;;;;5034695;28;20041;-82
2023/01/23 00:12:48;;;;;;;17.45;7.10;;;3.10;99.90;;;;;;5036386;28;20797;-82
2023/01/23 00:15:15;;;;;;;12.35;6.85;;;3.10;99.90;;;;;;5033481;28;20042;-81
2023/01/23 00:17:41;;;;;;;14.45;7.55;;;3.10;99.90;;;;;;5026931;28;20040;-82
2023/01/23 00:20:11;;;;;;;17.05;7.45;;;3.10;99.90;;;;;;5017449;28;20124;-82
2023/01/23 00:22:36;;;;;;;15.15;7.10;;;3.00;99.90;;;;;;5023032;28;20390;-81
2023/01/23 00:25:03;;;;;;;17.00;7.63;;;3.00;99.90;;;;;;5016818;28;20037;-82
2023/01/23 00:27:29;;;;;;;14.55;7.45;;;3.10;99.90;;;;;;5018076;28;20049;-82
2023/01/23 00:29:55;;;;;;;15.35;7.47;;;3.10;99.90;;;;;;5018588;28;20044;-82
2023/01/23 00:32:21;;;;;;;13.05;6.93;;;3.00;99.90;;;;;;5015696;28;20046;-82
2023/01/23 00:34:47;;;;;;;19.98;7.57;;;3.00;99.90;;;;;;5015453;28;20405;-82
2023/01/23 00:37:12;;;;;;;11.00;6.22;;;3.00;99.90;;;;;;5019421;28;20047;-81
2023/01/23 00:39:39;;;;;;;17.02;7.38;;;3.00;99.90;;;;;;5022634;28;20132;-82
2023/01/23 00:42:04;;;;;;;17.42;7.40;;;3.00;99.90;;;;;;5032779;28;20042;-82
2023/01/23 00:44:30;;;;;;;14.77;7.65;;;3.00;99.90;;;;;;5017321;28;20111;-82
2023/01/23 00:46:57;;;;;;;15.25;6.70;;;3.00;99.90;;;;;;5015060;28;20053;-82
2023/01/23 00:49:23;;;;;;;14.43;7.20;;;3.10;99.90;;;;;;5015045;28;20458;-82
2023/01/23 00:51:49;;;;;;;12.35;6.55;;;3.00;99.90;;;;;;5015579;28;20034;-82
2023/01/23 00:54:15;;;;;;;13.93;7.43;;;3.10;99.90;;;;;;5015417;28;20858;-82
2023/01/23 00:56:41;;;;;;;13.63;7.07;;;3.00;99.90;;;;;;5020442;28;20045;-82
2023/01/23 00:59:07;;;;;;;16.00;7.65;;;3.00;99.90;;;;;;5016407;28;20489;-82
2023/01/23 01:01:33;;;;;;;13.75;7.30;;;3.00;99.90;;;;;;5031196;28;20037;-82
2023/01/23 01:03:59;;;;;;;14.13;7.05;;;3.00;99.90;;;;;;5017672;28;20044;-82
2023/01/23 01:06:25;;;;;;;14.18;7.30;;;3.00;99.90;;;;;;5020005;28;20497;-82
2023/01/23 01:08:51;;;;;;;15.07;7.25;;;3.10;99.90;;;;;;5029809;28;20706;-82
2023/01/23 01:11:16;;;;;;;13.00;7.13;;;3.00;99.90;;;;;;5015501;28;20111;-82
2023/01/23 01:13:43;;;;;;;14.23;6.95;;;3.00;99.90;;;;;;5030221;28;20045;-82
2023/01/23 01:16:09;;;;;;;14.05;7.00;;;3.00;99.90;;;;;;5018258;28;20412;-82
2023/01/23 01:18:36;;;;;;;16.27;7.40;;;3.00;99.90;;;;;;5031596;28;20473;-82
2023/01/23 01:21:09;;;;;;;14.32;7.50;;;3.00;99.90;;;;;;5017877;28;20091;-82
2023/01/23 01:23:36;;;;;;;16.02;7.82;;;3.00;99.90;;;;;;5020565;28;20432;-81
2023/01/23 01:26:02;;;;;;;15.20;7.10;;;3.00;99.90;;;;;;5021062;28;20427;-82
2023/01/23 01:28:29;;;;;;;14.48;7.03;;;3.00;99.90;;;;;;5031929;28;20071;-82
2023/01/23 01:30:56;;;;;;;17.77;7.97;;;3.00;99.90;;;;;;5017071;28;20420;-82
2023/01/23 01:33:27;;;;;;;15.02;8.05;;;3.00;99.90;;;;;;5018574;28;20146;-82
2023/01/23 01:35:55;;;;;;;12.63;7.15;;;3.00;99.90;;;;;;5016612;28;20041;-82
2023/01/23 01:38:21;;;;;;;14.20;7.68;;;3.00;99.90;;;;;;5019144;28;20038;-82
2023/01/23 01:40:47;;;;;;;15.00;7.47;;;3.00;99.90;;;;;;5032125;28;20171;-82
2023/01/23 01:43:21;;;;;;;15.50;7.00;;;3.00;99.90;;;;;;5029491;28;20120;-82
2023/01/23 01:46:08;;;;;;;15.27;7.95;;;3.00;99.90;;;;;;5016062;28;20053;-82
2023/01/23 01:49:01;;;;;;;17.33;7.82;;;3.00;99.90;;;;;;5014264;28;20138;-82
2023/01/23 01:52:09;;;;;;;15.55;7.97;;;3.00;99.90;;;;;;5031994;28;20454;-82
2023/01/23 01:55:03;;;;;;;13.25;7.50;;;3.00;99.90;;;;;;5014950;28;20048;-82
2023/01/23 01:57:33;;;;;;;15.45;7.20;;;3.00;99.90;;;;;;5019793;28;20051;-82
2023/01/23 02:00:10;;;;;;;15.32;7.53;;;3.00;99.90;;;;;;5044032;28;20144;-82
2023/01/23 02:02:57;;;;;;;13.00;7.10;;;3.00;99.90;;;;;;5013841;28;20044;-82
2023/01/23 02:05:24;;;;;;;16.02;7.43;;;3.00;99.90;;;;;;5014019;28;20048;-82
2023/01/23 02:08:04;;;;;;;15.52;7.57;;;3.00;99.90;;;;;;5029961;28;20041;-82
2023/01/23 02:10:31;;;;;;;15.30;7.90;;;3.00;99.90;;;;;;5032231;28;20044;-81
2023/01/23 02:13:22;;;;;;;13.40;7.43;;;3.00;99.90;;;;;;5022755;28;20052;-82
2023/01/23 02:15:48;;;;;;;17.42;7.97;;;3.00;99.90;;;;;;5014926;28;20034;-82
2023/01/23 02:18:15;;;;;;;15.63;7.78;;;3.00;99.90;;;;;;5021564;28;20051;-81
2023/01/23 02:20:40;;;;;;;16.83;7.82;;;3.00;99.90;;;;;;5033211;28;20041;-82
2023/01/23 02:23:37;;;;;;;14.32;7.75;;;3.00;99.90;;;;;;5031588;28;20048;-82
2023/01/23 02:26:08;;;;;;;18.52;8.23;;;3.00;99.90;;;;;;5016882;28;20041;-82
2023/01/23 02:28:45;;;;;;;13.32;7.75;;;3.00;99.90;;;;;;5031708;28;20168;-82
2023/01/23 02:31:11;;;;;;;16.00;7.85;;;3.00;99.90;;;;;;5031653;28;20045;-82
2023/01/23 02:33:37;;;;;;;14.38;7.95;;;3.00;99.90;;;;;;5021518;28;20044;-82
2023/01/23 02:36:04;;;;;;;15.95;7.95;;;3.00;99.90;;;;;;5023852;28;20045;-82
2023/01/23 02:38:36;;;;;;;18.65;8.02;;;3.00;99.90;;;;;;5018955;28;20037;-82
2023/01/23 02:41:04;;;;;;;16.02;8.32;;;3.00;99.90;;;;;;5020216;28;20075;-82
2023/01/23 02:43:34;;;;;;;13.80;7.88;;;3.00;99.90;;;;;;5012074;28;20041;-81
2023/01/23 02:46:04;;;;;;;14.57;7.85;;;3.00;99.90;;;;;;5027527;28;20436;-82
2023/01/23 02:48:30;;;;;;;17.13;7.70;;;3.00;99.90;;;;;;5012218;28;20049;-82
2023/01/23 02:50:56;;;;;;;14.13;8.02;;;3.00;99.90;;;;;;5030656;28;20041;-82
2023/01/23 02:53:21;;;;;;;16.10;8.80;;;3.00;99.90;;;;;;5029721;28;20038;-82
2023/01/23 02:55:47;;;;;;;13.50;7.90;;;3.00;99.90;;;;;;5016212;28;20529;-82
2023/01/23 03:00:58;;;;;;;19.00;8.45;;;3.00;99.90;;;;;;5027564;28;20045;-82
2023/01/23 03:03:24;;;;;;;14.77;7.90;;;3.00;99.90;;;;;;5020321;28;20394;-82
2023/01/23 03:05:50;;;;;;;13.35;8.20;;;3.00;99.90;;;;;;5020503;28;20103;-82
2023/01/23 03:08:15;;;;;;;15.35;8.02;;;3.00;99.90;;;;;;5037902;28;20112;-82
2023/01/23 03:10:42;;;;;;;17.75;8.32;;;3.00;99.90;;;;;;5012869;28;20445;-82
2023/01/23 03:13:10;;;;;;;17.63;8.23;;;3.00;99.90;;;;;;5013624;28;20135;-82
2023/01/23 03:15:41;;;;;;;18.88;8.77;;;3.00;99.90;;;;;;5015194;28;20038;-82
2023/01/23 03:18:07;;;;;;;17.00;8.57;;;3.00;99.90;;;;;;5016193;28;20040;-82
2023/01/23 03:20:40;;;;;;;16.60;8.20;;;3.00;99.90;;;;;;5029394;28;20749;-82
2023/01/23 03:23:06;;;;;;;15.03;8.60;;;3.00;99.90;;;;;;5033407;28;20396;-82
2023/01/23 03:25:32;;;;;;;15.20;7.93;;;3.00;99.90;;;;;;5013247;28;20037;-82
2023/01/23 03:27:57;;;;;;;16.13;7.90;;;3.00;99.90;;;;;;5015618;28;20041;-82
2023/01/23 03:30:24;;;;;;;16.30;8.48;;;3.00;99.90;;;;;;5015106;28;20060;-82
2023/01/23 03:32:50;;;;;;;17.55;8.27;;;3.00;99.90;;;;;;5030150;28;20119;-82
2023/01/23 03:35:19;;;;;;;16.30;7.90;;;2.90;99.90;;;;;;5028724;28;20136;-82
2023/01/23 03:37:45;;;;;;;14.38;8.07;;;3.00;99.90;;;;;;5016842;28;20036;-81
2023/01/23 03:43:02;;;;;;;14.38;8.07;;;3.00;99.90;;;;;;5031156;28;20037;-82
2023/01/23 03:45:28;;;;;;;17.83;8.18;;;2.90;99.90;;;;;;5015525;28;20108;-82
2023/01/23 03:47:54;;;;;;;20.45;9.13;;;3.00;99.90;;;;;;5017894;28;20481;-82
2023/01/23 03:50:19;;;;;;;19.67;9.23;;;2.90;99.90;;;;;;5015272;28;20450;-81
2023/01/23 03:52:45;;;;;;;14.68;8.55;;;2.90;99.90;;;;;;5018714;28;20090;-82
2023/01/23 03:55:10;;;;;;;18.38;8.90;;;2.90;99.90;;;;;;5018008;28;20420;-82
2023/01/23 03:57:36;;;;;;;15.75;8.85;;;2.90;99.90;;;;;;5030734;28;20144;-82
2023/01/23 04:00:03;;;;;;;17.80;8.55;;;2.90;99.90;;;;;;5018826;28;20425;-82
2023/01/23 04:02:29;;;;;;;15.15;8.73;;;3.00;99.90;;;;;;5034778;28;20041;-82
2023/01/23 04:04:54;;;;;;;18.10;9.13;;;2.90;99.90;;;;;;5014083;28;20045;-82
2023/01/23 04:07:20;;;;;;;17.65;8.95;;;2.90;99.90;;;;;;5015310;28;20037;-82
2023/01/23 04:09:46;;;;;;;15.15;8.60;;;2.90;99.90;;;;;;5032821;28;20037;-82
2023/01/23 04:12:12;;;;;;;16.23;9.20;;;3.00;99.90;;;;;;5018790;28;20049;-82
2023/01/23 04:14:38;;;;;;;18.55;9.55;;;2.90;99.90;;;;;;5022627;28;20087;-82
2023/01/23 04:17:05;;;;;;;15.68;8.70;;;2.90;99.90;;;;;;5015770;28;20084;-82
2023/01/23 04:19:31;;;;;;;19.92;8.75;;;2.90;99.90;;;;;;5028629;28;20096;-82
2023/01/23 04:21:57;;;;;;;16.08;8.60;;;2.90;99.90;;;;;;5015933;28;20069;-82
2023/01/23 04:24:23;;;;;;;16.90;9.30;;;2.90;99.90;;;;;;5013958;28;20080;-82
2023/01/23 04:26:48;;;;;;;17.77;9.32;;;2.90;99.90;;;;;;5014767;28;20083;-82
2023/01/23 04:29:15;;;;;;;16.38;9.20;;;2.80;99.90;;;;;;5030845;28;20049;-82
2023/01/23 04:31:41;;;;;;;17.65;8.88;;;2.90;99.90;;;;;;5018472;28;20527;-82
2023/01/23 04:34:07;;;;;;;18.05;9.15;;;2.80;99.90;;;;;;5032873;28;20122;-82
2023/01/23 04:36:33;;;;;;;16.63;9.30;;;2.80;99.90;;;;;;5029009;28;20111;-82
2023/01/23 04:38:59;;;;;;;21.27;10.05;;;2.80;99.90;;;;;;5033171;28;20048;-82
2023/01/23 04:41:27;;;;;;;19.55;9.95;;;2.80;99.90;;;;;;5038289;28;20103;-82
2023/01/23 04:43:53;;;;;;;21.25;9.85;;;2.80;99.90;;;;;;5019721;28;20034;-82
2023/01/23 04:46:19;;;;;;;17.95;9.65;;;2.80;99.90;;;;;;5036821;28;20068;-82
2023/01/23 04:48:45;;;;;;;22.27;10.02;;;2.80;99.90;;;;;;5018751;28;20120;-82
2023/01/23 04:51:11;;;;;;;19.80;10.20;;;2.80;99.90;;;;;;5018682;28;20045;-82
2023/01/23 04:53:37;;;;;;;20.23;9.18;;;2.80;99.90;;;;;;5014054;28;20048;-82
2023/01/23 04:56:03;;;;;;;20.25;10.10;;;2.80;99.90;;;;;;5031616;28;20137;-82
2023/01/23 04:58:29;;;;;;;20.63;9.77;;;2.80;99.90;;;;;;5020930;28;20037;-82
2023/01/23 05:01:01;;;;;;;20.30;10.43;;;2.80;99.90;;;;;;5018107;28;20033;-81
2023/01/23 05:03:26;;;;;;;16.52;8.70;;;2.80;99.90;;;;;;5015268;28;20064;-82
2023/01/23 05:05:52;;;;;;;19.92;9.63;;;2.80;99.90;;;;;;5031755;28;20042;-82
2023/01/23 05:08:17;;;;;;;21.98;10.57;;;2.70;99.90;;;;;;5016257;28;20453;-82
2023/01/23 05:10:43;;;;;;;23.27;10.75;;;2.80;99.90;;;;;;5021391;28;20047;-82
2023/01/23 05:13:09;;;;;;;18.65;10.25;;;2.70;99.90;;;;;;5016302;28;20488;-82
2023/01/23 05:15:34;;;;;;;18.17;9.88;;;2.70;99.90;;;;;;5023510;28;20037;-82
2023/01/23 05:18:00;;;;;;;20.15;9.80;;;2.70;99.90;;;;;;5013993;28;20527;-82
2023/01/23 05:20:26;;;;;;;20.42;9.98;;;2.70;99.90;;;;;;5019927;28;20532;-82
2023/01/23 05:22:52;;;;;;;18.30;9.38;;;2.70;99.90;;;;;;5032027;28;20034;-82
2023/01/23 05:25:19;;;;;;;16.80;9.63;;;2.70;99.90;;;;;;5024951;28;20152;-81
2023/01/23 05:27:45;;;;;;;22.65;10.40;;;2.70;99.90;;;;;;5030618;28;20092;-82
2023/01/23 05:30:11;;;;;;;19.20;9.57;;;2.70;99.90;;;;;;5015239;28;20083;-82
2023/01/23 05:32:36;;;;;;;20.13;9.18;;;2.70;99.90;;;;;;5032767;28;20140;-82
2023/01/23 05:35:02;;;;;;;17.70;8.95;;;2.70;99.90;;;;;;5018493;28;20038;-81
2023/01/23 05:37:28;;;;;;;22.60;9.25;;;2.70;99.90;;;;;;5031974;28;20033;-81
2023/01/23 05:39:53;;;;;;;17.52;9.57;;;2.70;99.90;;;;;;5015526;28;20614;-82
2023/01/23 05:42:19;;;;;;;19.48;9.50;;;2.70;99.90;;;;;;5016415;28;20096;-82
2023/01/23 05:44:44;;;;;;;17.52;9.60;;;2.70;99.90;;;;;;5018005;28;20041;-82
2023/01/23 05:47:10;;;;;;;16.40;8.68;;;2.60;99.90;;;;;;5014556;28;20056;-81
2023/01/23 05:49:35;;;;;;;21.55;10.70;;;2.70;99.90;;;;;;5023213;28;20044;-82
2023/01/23 05:52:01;;;;;;;20.63;10.32;;;2.70;99.90;;;;;;5015067;28;20071;-82
2023/01/23 05:54:27;;;;;;;17.70;10.20;;;2.70;99.90;;;;;;5015638;28;20053;-82
2023/01/23 05:56:52;;;;;;;18.20;10.40;;;2.60;99.90;;;;;;5014006;28;20049;-82
2023/01/23 05:59:18;;;;;;;19.02;10.82;;;2.70;99.90;;;;;;5021823;28;20037;-82
2023/01/23 06:01:43;;;;;;;20.77;10.38;;;2.70;99.90;;;;;;5033636;28;20037;-82
2023/01/23 06:04:09;;;;;;;21.75;10.40;;;2.60;99.90;;;;;;5014624;28;20046;-82
2023/01/23 06:06:35;;;;;;;20.05;10.25;;;2.70;99.90;;;;;;5020926;28;20626;-82
2023/01/23 06:09:00;;;;;;;21.10;9.52;;;2.60;99.90;;;;;;5032256;28;20095;-82
2023/01/23 06:11:26;;;;;;;22.45;10.38;;;2.60;99.90;;;;;;5016664;28;20374;-82
2023/01/23 06:13:52;;;;;;;20.70;8.93;;;2.60;99.90;;;;;;5015017;28;20044;-82
2023/01/23 06:16:17;;;;;;;19.95;9.70;;;2.60;99.90;;;;;;5019275;28;20068;-82
2023/01/23 06:18:43;;;;;;;21.42;10.15;;;2.60;99.90;;;;;;5035698;28;20060;-82
2023/01/23 06:21:08;;;;;;;17.92;10.05;;;2.60;99.90;;;;;;5020658;28;20051;-82
2023/01/23 06:23:34;;;;;;;20.20;9.40;;;2.70;99.90;;;;;;5014286;28;20037;-82
2023/01/23 06:26:01;;;;;;;19.88;10.10;;;2.60;99.90;;;;;;5016887;28;20140;-82
2023/01/23 06:28:27;;;;;;;23.75;10.77;;;2.60;99.90;;;;;;5022087;28;20040;-82
2023/01/23 06:30:53;;;;;;;21.15;9.80;;;2.60;99.90;;;;;;5033601;28;20052;-82
2023/01/23 06:33:19;;;;;;;18.58;9.10;;;2.60;99.90;;;;;;5027185;28;20056;-81
2023/01/23 06:35:44;;;;;;;20.55;9.75;;;2.60;99.90;;;;;;5022514;28;20401;-82
2023/01/23 06:38:10;;;;;;;19.95;10.23;;;2.60;99.90;;;;;;5012604;28;20493;-82
2023/01/23 06:40:35;;;;;;;15.65;8.82;;;2.70;99.90;;;;;;5014292;28;20520;-82
2023/01/23 06:43:01;;;;;;;17.23;9.85;;;2.70;99.90;;;;;;5022275;28;20041;-82
2023/01/23 06:45:26;;;;;;;18.60;9.48;;;2.70;99.90;;;;;;5042213;28;20061;-82
2023/01/23 06:47:52;;;;;;;19.73;9.93;;;2.70;99.90;;;;;;5033808;28;20080;-82
2023/01/23 06:50:18;;;;;;;22.67;10.15;;;2.70;99.90;;;;;;5016517;28;20041;-82
2023/01/23 06:52:43;;;;;;;18.63;9.88;;;2.60;99.90;;;;;;5032402;28;20099;-82
2023/01/23 06:55:09;;;;;;;18.73;9.73;;;2.70;99.90;;;;;;5018798;28;20080;-82
2023/01/23 06:57:35;;;;;;;22.38;10.13;;;2.60;99.90;;;;;;5031845;28;20045;-81
2023/01/23 07:00:01;;;;;;;23.15;11.60;;;2.70;99.90;;;;;;5021620;28;20064;-82
2023/01/23 07:02:26;;;;;;;28.60;14.13;;;2.60;99.90;;;;;;5032639;28;20034;-82
2023/01/23 07:04:52;;;;;;;23.55;11.48;;;2.70;99.90;;;;;;5010450;28;20516;-82
2023/01/23 07:07:18;;;;;;;19.95;10.60;;;2.60;99.90;;;;;;5028553;28;20037;-82
2023/01/23 07:09:44;;;;;;;15.13;8.20;;;2.60;99.90;;;;;;5021795;28;20041;-81
2023/01/23 07:12:09;;;;;;;19.50;8.98;;;2.60;99.90;;;;;;5034161;28;20049;-82
2023/01/23 07:14:35;;;;;;;20.92;11.57;;;2.70;99.90;;;;;;5016426;28;20052;-82
2023/01/23 07:17:00;;;;;;;17.00;6.32;;;2.70;99.90;;;;;;5027078;28;20548;-82
2023/01/23 07:19:26;;;;;;;23.20;12.57;;;2.60;99.90;;;;;;5036959;28;20048;-82
2023/01/23 07:21:52;;;;;;;32.63;16.65;;;2.70;99.90;;;;;;5024971;28;20066;-82
2023/01/23 07:24:18;;;;;;;30.17;14.77;;;2.60;99.90;;;;;;5030018;28;20077;-82
2023/01/23 07:26:43;;;;;;;23.90;13.00;;;2.60;99.90;;;;;;5013976;28;20529;-82
2023/01/23 07:29:09;;;;;;;21.40;11.38;;;2.60;99.90;;;;;;5021581;28;20044;-82
2023/01/23 07:31:35;;;;;;;20.70;9.63;;;2.60;99.90;;;;;;5018515;28;20044;-82
2023/01/23 07:34:01;;;;;;;22.05;10.70;;;2.60;99.90;;;;;;5017980;28;20393;-82
2023/01/23 07:36:27;;;;;;;22.27;11.35;;;2.60;99.90;;;;;;5016606;28;20041;-82
2023/01/23 07:38:54;;;;;;;18.35;10.52;;;2.60;99.90;;;;;;5015451;28;20040;-82
2023/01/23 07:41:20;;;;;;;21.85;11.50;;;2.60;99.90;;;;;;5029691;28;20488;-82
2023/01/23 07:43:46;;;;;;;23.25;12.00;;;2.60;99.90;;;;;;5012756;28;20030;-82
2023/01/23 07:46:11;;;;;;;20.70;10.75;;;2.60;99.90;;;;;;5015067;28;20080;-82
2023/01/23 07:48:37;;;;;;;20.00;10.20;;;2.60;99.90;;;;;;5041614;28;20056;-83
2023/01/23 07:51:04;;;;;;;19.58;10.43;;;2.60;99.90;;;;;;5011683;28;20408;-82
2023/01/23 07:53:30;;;;;;;20.27;9.07;;;2.60;99.90;;;;;;5028530;28;20045;-82
2023/01/23 07:55:55;;;;;;;19.83;11.13;;;2.60;99.90;;;;;;5014036;28;20036;-82
2023/01/23 07:58:21;;;;;;;20.45;11.85;;;2.60;99.90;;;;;;5012716;28;20083;-82
2023/01/23 08:00:46;;;;;;;23.15;12.27;;;2.60;99.90;;;;;;5018095;28;20144;-82
2023/01/23 08:03:13;;;;;;;18.42;10.13;;;2.60;99.90;;;;;;5014702;28;20041;-82
2023/01/23 08:05:38;;;;;;;23.52;11.60;;;2.60;99.90;;;;;;5030486;28;20046;-82
2023/01/23 08:08:04;;;;;;;21.98;11.50;;;2.60;99.90;;;;;;5018748;28;20045;-82
2023/01/23 08:10:30;;;;;;;24.92;11.88;;;2.60;99.90;;;;;;5016590;28;20069;-82
2023/01/23 08:12:55;;;;;;;19.67;9.95;;;2.70;99.90;;;;;;5016732;28;20449;-82
2023/01/23 08:15:21;;;;;;;17.50;8.30;;;2.70;99.90;;;;;;5017993;28;20480;-82
2023/01/23 08:17:47;;;;;;;19.60;10.20;;;2.70;99.90;;;;;;5021467;28;20083;-82
2023/01/23 08:20:13;;;;;;;17.80;9.57;;;2.70;99.90;;;;;;5022021;28;20132;-82
2023/01/23 08:22:39;;;;;;;21.48;10.55;;;2.80;99.90;;;;;;5036812;28;20044;-82
2023/01/23 08:25:09;;;;;;;16.98;9.52;;;2.80;99.90;;;;;;5030577;28;20049;-82
2023/01/23 08:27:35;;;;;;;18.23;9.25;;;2.80;99.90;;;;;;5021063;28;20052;-82
2023/01/23 08:30:01;;;;;;;19.15;9.30;;;2.80;99.90;;;;;;5021738;28;20037;-82
2023/01/23 08:32:27;;;;;;;18.23;9.18;;;2.90;99.90;;;;;;5037321;28;20041;-82
2023/01/23 08:34:53;;;;;;;17.15;8.60;;;2.90;99.90;;;;;;5040684;28;20040;-82
2023/01/23 08:37:19;;;;;;;16.88;9.18;;;2.90;99.90;;;;;;5017227;28;20033;-82
2023/01/23 08:39:45;;;;;;;16.60;9.15;;;3.00;99.90;;;;;;5042080;28;20040;-83
2023/01/23 08:42:11;;;;;;;15.93;8.80;;;3.00;99.90;;;;;;5019112;28;20485;-82
2023/01/23 08:44:36;;;;;;;16.30;9.15;;;3.00;99.90;;;;;;5020213;28;20318;-82
2023/01/23 08:47:02;;;;;;;16.10;8.88;;;3.00;99.90;;;;;;5013515;28;20038;-83
2023/01/23 08:49:28;;;;;;;16.77;8.45;;;3.00;99.90;;;;;;5019064;28;20141;-82
2023/01/23 08:51:55;;;;;;;13.65;7.45;;;3.10;99.90;;;;;;5031040;28;20037;-82
2023/01/23 08:54:21;;;;;;;13.90;8.30;;;3.10;99.90;;;;;;5031455;28;20076;-82
2023/01/23 08:56:46;;;;;;;16.13;8.27;;;3.10;99.90;;;;;;5034010;28;20112;-82
2023/01/23 08:59:12;;;;;;;14.38;7.60;;;3.10;99.90;;;;;;5020177;28;20397;-82
2023/01/23 09:01:38;;;;;;;14.68;7.53;;;3.20;99.90;;;;;;5022803;28;20037;-82
2023/01/23 09:04:03;;;;;;;12.40;6.72;;;3.20;99.90;;;;;;5022217;28;20039;-82
2023/01/23 09:06:29;;;;;;;12.38;7.05;;;3.20;99.90;;;;;;5019793;28;20068;-82
2023/01/23 09:08:55;;;;;;;11.18;6.22;;;3.20;99.90;;;;;;5015311;28;20040;-82
2023/01/23 09:11:22;;;;;;;12.68;6.75;;;3.20;99.90;;;;;;5036073;28;20435;-82
2023/01/23 09:13:47;;;;;;;13.18;7.28;;;3.30;99.90;;;;;;5020556;28;20052;-82
2023/01/23 09:16:13;;;;;;;12.75;7.50;;;3.30;99.90;;;;;;5032358;28;20492;-82
2023/01/23 09:18:39;;;;;;;14.80;7.97;;;3.30;99.90;;;;;;5017091;28;20545;-83
2023/01/23 09:21:10;;;;;;;11.07;5.90;;;3.30;99.90;;;;;;5018521;28;20045;-82
2023/01/23 09:23:37;;;;;;;13.68;6.90;;;3.30;99.90;;;;;;5018248;28;20116;-82
2023/01/23 09:26:05;;;;;;;10.82;6.50;;;3.40;99.90;;;;;;5017323;28;20044;-82
2023/01/23 09:28:30;;;;;;;13.00;6.97;;;3.40;99.90;;;;;;5021898;28;20044;-83
2023/01/23 09:30:56;;;;;;;11.40;7.00;;;3.40;99.90;;;;;;5035724;28;20048;-82
2023/01/23 09:33:25;;;;;;;12.30;7.30;;;3.40;99.90;;;;;;5037513;28;20456;-82
2023/01/23 09:35:51;;;;;;;14.05;7.43;;;3.40;99.90;;;;;;5017186;28;20037;-82
2023/01/23 09:38:17;;;;;;;12.75;5.97;;;3.40;99.90;;;;;;5014355;28;20091;-82
2023/01/23 09:40:48;;;;;;;11.32;6.28;;;3.50;99.90;;;;;;5030286;28;20452;-82
2023/01/23 09:43:30;;;;;;;10.00;6.45;;;3.50;99.90;;;;;;5020690;28;20449;-82
2023/01/23 09:46:21;;;;;;;10.93;6.00;;;3.50;99.90;;;;;;5018576;28;20088;-82
2023/01/23 09:48:52;;;;;;;11.50;6.88;;;3.60;99.90;;;;;;5036556;28;20039;-82
2023/01/23 09:51:30;;;;;;;10.77;6.32;;;3.60;99.90;;;;;;5017533;28;20159;-82
2023/01/23 09:54:00;;;;;;;10.98;6.28;;;3.60;99.90;;;;;;5031048;28;20386;-83
2023/01/23 09:56:37;;;;;;;11.25;5.90;;;3.60;99.90;;;;;;5033285;28;20086;-82
2023/01/23 09:59:23;;;;;;;12.88;7.07;;;3.70;99.90;;;;;;5029889;28;20048;-82
2023/01/23 10:01:49;;;;;;;11.07;5.90;;;3.70;99.90;;;;;;5021678;28;20566;-83
2023/01/23 10:04:18;;;;;;;11.68;6.97;;;3.80;99.90;;;;;;5034229;28;20042;-82
2023/01/23 10:07:20;;;;;;;9.23;5.60;;;3.80;99.90;;;;;;5013985;28;20116;-82
2023/01/23 10:09:46;;;;;;;11.25;6.10;;;3.80;99.90;;;;;;5018218;28;20128;-82
2023/01/23 10:12:24;;;;;;;9.02;5.43;;;3.90;99.90;;;;;;5015757;28;20548;-83
2023/01/23 10:15:17;;;;;;;7.95;5.68;;;3.90;99.90;;;;;;5015918;28;20461;-82
2023/01/23 10:18:09;;;;;;;11.25;6.22;;;3.90;99.90;;;;;;5021143;28;20500;-82
2023/01/23 10:21:01;;;;;;;11.43;6.32;;;3.90;99.90;;;;;;5015888;28;20033;-82
2023/01/23 10:23:57;;;;;;;10.23;5.95;;;4.00;99.90;;;;;;5013650;28;20037;-82
2023/01/23 10:26:28;;;;;;;9.93;5.53;;;4.00;99.90;;;;;;5013792;28;20409;-82
2023/01/23 10:29:02;;;;;;;7.20;4.15;;;4.00;99.90;;;;;;5013842;28;20128;-82
2023/01/23 10:31:37;;;;;;;9.43;5.40;;;4.00;99.90;;;;;;5032413;28;20048;-82
2023/01/23 10:34:19;;;;;;;9.50;6.10;;;4.00;99.90;;;;;;5030932;28;20112;-82
2023/01/23 10:37:02;;;;;;;13.43;6.70;;;4.00;99.90;;;;;;5015879;28;20041;-82
2023/01/23 10:39:36;;;;;;;12.35;6.95;;;4.00;99.90;;;;;;5021814;28;20042;-82
2023/01/23 10:42:02;;;;;;;11.50;5.80;;;4.00;99.90;;;;;;5014716;28;20037;-82
2023/01/23 10:44:27;;;;;;;9.60;5.50;;;4.10;99.90;;;;;;5013037;28;20392;-82
2023/01/23 10:46:59;;;;;;;10.73;6.20;;;4.10;99.90;;;;;;5020147;28;20063;-82
2023/01/23 10:49:38;;;;;;;11.95;6.70;;;4.10;99.90;;;;;;5016924;28;20408;-82
2023/01/23 10:52:32;;;;;;;10.32;6.05;;;4.20;99.90;;;;;;5013629;28;20952;-82
2023/01/23 10:54:57;;;;;;;9.70;6.57;;;4.20;99.90;;;;;;5017145;28;20447;-82
2023/01/23 10:57:26;;;;;;;12.13;6.65;;;4.30;99.90;;;;;;5029229;28;20033;-82
2023/01/23 11:00:18;;;;;;;9.77;6.00;;;4.30;99.90;;;;;;5016568;28;20029;-82
2023/01/23 11:02:44;;;;;;;8.65;5.40;;;4.30;99.90;;;;;;5021100;28;20402;-82
2023/01/23 11:05:36;;;;;;;9.70;6.20;;;4.40;99.90;;;;;;5023418;28;20033;-82
2023/01/23 11:08:02;;;;;;;9.70;5.80;;;4.40;99.90;;;;;;5012863;28;20040;-82
2023/01/23 11:10:27;;;;;;;9.18;5.65;;;4.40;99.90;;;;;;5030627;28;20052;-82
2023/01/23 11:12:54;;;;;;;9.18;5.85;;;4.40;99.90;;;;;;5012992;28;20451;-82
2023/01/23 11:15:27;;;;;;;6.90;4.50;;;4.40;99.90;;;;;;5015575;28;20085;-82
2023/01/23 11:17:56;;;;;;;9.82;6.68;;;4.40;99.90;;;;;;5033254;28;20129;-82
2023/01/23 11:20:36;;;;;;;13.77;7.13;;;4.40;99.90;;;;;;5031794;28;20162;-82
2023/01/23 11:23:11;;;;;;;9.45;6.38;;;4.30;99.90;;;;;;5020446;28;20041;-82
2023/01/23 11:25:44;;;;;;;10.27;6.90;;;4.40;99.90;;;;;;5024394;28;20048;-82
2023/01/23 11:28:29;;;;;;;12.45;8.20;;;4.40;99.90;;;;;;5019239;28;20037;-82
2023/01/23 11:31:04;;;;;;;10.40;5.88;;;4.40;99.90;;;;;;5057447;28;20041;-82
2023/01/23 11:33:56;;;;;;;11.50;7.50;;;4.50;99.90;;;;;;5029989;28;20042;-82
2023/01/23 11:36:21;;;;;;;11.68;7.88;;;4.50;99.90;;;;;;5008819;28;20404;-82
2023/01/23 11:38:56;;;;;;;12.70;7.13;;;4.60;99.90;;;;;;5013506;28;20037;-81
2023/01/23 11:41:31;;;;;;;11.27;7.18;;;4.50;99.90;;;;;;5011517;28;20077;-82
2023/01/23 11:43:57;;;;;;;13.50;6.78;;;4.60;99.90;;;;;;5011406;28;20037;-82
2023/01/23 11:46:25;;;;;;;11.77;7.55;;;4.60;99.90;;;;;;5030487;28;20057;-82
2023/01/23 11:49:02;;;;;;;12.93;8.07;;;4.60;99.90;;;;;;5010875;28;20045;-82
2023/01/23 11:51:58;;;;;;;12.05;7.82;;;4.60;99.90;;;;;;5016538;28;20045;-82
2023/01/23 11:54:49;;;;;;;13.07;7.63;;;4.70;99.90;;;;;;5015105;28;20190;-82
2023/01/23 11:57:36;;;;;;;14.00;8.50;;;4.70;99.90;;;;;;5028543;28;20045;-82
2023/01/23 12:00:26;;;;;;;10.10;5.82;;;4.70;99.90;;;;;;5013128;28;20040;-82
2023/01/23 12:03:17;;;;;;;14.00;8.85;;;4.80;99.90;;;;;;5010253;28;20065;-82
2023/01/23 12:06:20;;;;;;;13.73;8.23;;;4.80;99.90;;;;;;5032596;28;20073;-82
2023/01/23 12:08:54;;;;;;;13.05;7.25;;;4.80;99.90;;;;;;5008859;28;20045;-82
2023/01/23 12:11:23;;;;;;;12.03;7.67;;;4.90;99.90;;;;;;5010878;28;20052;-82
2023/01/23 12:14:04;;;;;;;15.38;8.63;;;4.90;99.90;;;;;;5032039;28;20045;-82
2023/01/23 12:16:48;;;;;;;13.50;7.45;;;4.90;99.90;;;;;;5014383;28;20119;-81
2023/01/23 12:19:34;;;;;;;10.27;6.20;;;4.90;99.90;;;;;;5035256;28;20052;-82
2023/01/23 12:22:28;;;;;;;11.90;7.22;;;4.80;99.90;;;;;;5006980;28;20041;-82
2023/01/23 12:25:04;;;;;;;13.18;7.70;;;4.90;99.90;;;;;;5014345;28;20416;-81
2023/01/23 12:27:42;;;;;;;13.60;8.25;;;4.80;99.90;;;;;;5027648;28;20049;-81
2023/01/23 12:30:27;;;;;;;13.35;7.80;;;4.80;99.90;;;;;;5019005;28;20569;-82
2023/01/23 12:33:21;;;;;;;10.30;6.15;;;4.90;99.90;;;;;;5016815;28;20053;-82
2023/01/23 12:36:08;;;;;;;8.48;5.40;;;4.90;99.90;;;;;;5029787;28;20045;-82
2023/01/23 12:38:52;;;;;;;6.65;4.47;;;4.90;99.90;;;;;;5014600;28;20073;-82
2023/01/23 12:41:40;;;;;;;6.57;4.87;;;4.90;99.90;;;;;;5018300;28;20041;-81
2023/01/23 12:44:28;;;;;;;8.55;5.07;;;4.80;99.90;;;;;;5010594;28;20041;-81
2023/01/23 12:47:09;;;;;;;6.82;4.57;;;4.80;99.90;;;;;;5014806;28;20413;-82
2023/01/23 12:49:41;;;;;;;6.93;4.72;;;4.80;99.90;;;;;;5017447;28;20473;-82
2023/01/23 12:52:18;;;;;;;5.95;3.95;;;4.80;99.90;;;;;;5033156;28;20045;-82
2023/01/23 12:55:11;;;;;;;5.13;3.67;;;4.70;99.90;;;;;;5023177;28;20037;-82
2023/01/23 12:57:42;;;;;;;8.70;6.03;;;4.70;99.90;;;;;;5033482;28;20041;-82
2023/01/23 13:00:42;;;;;;;8.57;5.32;;;4.70;99.90;;;;;;5021898;28;20405;-82
2023/01/23 13:03:30;;;;;;;10.88;5.90;;;4.70;99.90;;;;;;5018288;28;21282;-82
2023/01/23 13:05:58;;;;;;;7.63;4.55;;;4.60;99.90;;;;;;5013240;28;20049;-82